sensor_id;sensor_type;location;lat;lon;timestamp;P1;durP1;ratioP1;P2;durP2;ratioP2
57567;SDS011;43403;51.948;5.922;2023-08-06T00:00:30;7.93;;;4.63;;
57567;SDS011;43403;51.948;5.922;2023-08-06T00:02:56;9.07;;;5.22;;
57567;SDS011;43403;51.948;5.922;2023-08-06T00:05:23;10.50;;;4.80;;
57567;SDS011;43403;51.948;5.922;2023-08-06T00:07:50;8.32;;;5.18;;
57567;SDS011;43403;51.948;5.922;2023-08-06T00:10:17;6.47;;;4.82;;
57567;SDS011;43403;51.948;5.922;2023-08-06T00:12:44;8.07;;;5.47;;
57567;SDS011;43403;51.948;5.922;2023-08-06T00:15:11;9.15;;;6.00;;
57567;SDS011;43403;51.948;5.922;2023-08-06T00:17:37;9.25;;;6.57;;
57567;SDS011;43403;51.948;5.922;2023-08-06T00:20:04;8.80;;;6.47;;
57567;SDS011;43403;51.948;5.922;2023-08-06T00:22:33;14.18;;;7.28;;
57567;SDS011;43403;51.948;5.922;2023-08-06T00:25:01;9.45;;;7.00;;
57567;SDS011;43403;51.948;5.922;2023-08-06T00:27:28;11.23;;;7.60;;
57567;SDS011;43403;51.948;5.922;2023-08-06T00:29:55;8.57;;;6.55;;
57567;SDS011;43403;51.948;5.922;2023-08-06T00:32:22;10.25;;;6.72;;
57567;SDS011;43403;51.948;5.922;2023-08-06T00:34:48;11.20;;;7.32;;
57567;SDS011;43403;51.948;5.922;2023-08-06T00:37:17;11.25;;;7.65;;
57567;SDS011;43403;51.948;5.922;2023-08-06T00:39:44;10.45;;;7.32;;
57567;SDS011;43403;51.948;5.922;2023-08-06T00:42:11;9.75;;;7.50;;
57567;SDS011;43403;51.948;5.922;2023-08-06T00:44:38;10.75;;;7.03;;
57567;SDS011;43403;51.948;5.922;2023-08-06T00:47:05;11.00;;;7.75;;
57567;SDS011;43403;51.948;5.922;2023-08-06T00:49:34;10.35;;;8.07;;
57567;SDS011;43403;51.948;5.922;2023-08-06T00:54:29;10.95;;;7.85;;
57567;SDS011;43403;51.948;5.922;2023-08-06T00:56:57;10.10;;;6.72;;
57567;SDS011;43403;51.948;5.922;2023-08-06T00:59:26;12.57;;;8.05;;
57567;SDS011;43403;51.948;5.922;2023-08-06T01:01:53;12.50;;;7.15;;
57567;SDS011;43403;51.948;5.922;2023-08-06T01:04:20;9.70;;;5.65;;
57567;SDS011;43403;51.948;5.922;2023-08-06T01:06:47;10.02;;;5.70;;
57567;SDS011;43403;51.948;5.922;2023-08-06T01:10:01;9.52;;;5.38;;
57567;SDS011;43403;51.948;5.922;2023-08-06T01:12:18;7.57;;;4.82;;
57567;SDS011;43403;51.948;5.922;2023-08-06T01:14:49;10.05;;;4.70;;
57567;SDS011;43403;51.948;5.922;2023-08-06T01:17:33;6.40;;;4.30;;
57567;SDS011;43403;51.948;5.922;2023-08-06T01:20:01;8.35;;;4.40;;
57567;SDS011;43403;51.948;5.922;2023-08-06T01:22:28;6.35;;;4.40;;
57567;SDS011;43403;51.948;5.922;2023-08-06T01:24:54;6.05;;;4.20;;
57567;SDS011;43403;51.948;5.922;2023-08-06T01:27:33;6.47;;;4.30;;
57567;SDS011;43403;51.948;5.922;2023-08-06T01:30:16;7.88;;;4.75;;
57567;SDS011;43403;51.948;5.922;2023-08-06T01:32:50;7.00;;;5.25;;
57567;SDS011;43403;51.948;5.922;2023-08-06T01:35:19;8.10;;;5.53;;
57567;SDS011;43403;51.948;5.922;2023-08-06T01:37:49;6.57;;;4.72;;
57567;SDS011;43403;51.948;5.922;2023-08-06T01:40:16;7.40;;;5.50;;
57567;SDS011;43403;51.948;5.922;2023-08-06T01:42:42;8.88;;;5.72;;
57567;SDS011;43403;51.948;5.922;2023-08-06T01:45:09;9.63;;;5.82;;
57567;SDS011;43403;51.948;5.922;2023-08-06T01:47:36;8.85;;;6.47;;
57567;SDS011;43403;51.948;5.922;2023-08-06T01:50:03;11.57;;;6.60;;
57567;SDS011;43403;51.948;5.922;2023-08-06T01:52:30;10.82;;;7.28;;
57567;SDS011;43403;51.948;5.922;2023-08-06T01:54:56;9.57;;;6.75;;
57567;SDS011;43403;51.948;5.922;2023-08-06T01:57:23;10.52;;;7.47;;
57567;SDS011;43403;51.948;5.922;2023-08-06T01:59:50;10.75;;;7.57;;
57567;SDS011;43403;51.948;5.922;2023-08-06T02:02:16;12.15;;;8.15;;
57567;SDS011;43403;51.948;5.922;2023-08-06T02:04:43;11.15;;;8.63;;
57567;SDS011;43403;51.948;5.922;2023-08-06T02:07:09;11.57;;;8.77;;
57567;SDS011;43403;51.948;5.922;2023-08-06T02:09:36;12.77;;;9.00;;
57567;SDS011;43403;51.948;5.922;2023-08-06T02:12:02;10.70;;;9.30;;
57567;SDS011;43403;51.948;5.922;2023-08-06T02:14:29;12.27;;;9.13;;
57567;SDS011;43403;51.948;5.922;2023-08-06T02:16:56;14.70;;;9.88;;
57567;SDS011;43403;51.948;5.922;2023-08-06T02:19:22;11.00;;;9.48;;
57567;SDS011;43403;51.948;5.922;2023-08-06T02:21:49;11.38;;;9.65;;
57567;SDS011;43403;51.948;5.922;2023-08-06T02:24:16;13.07;;;9.40;;
57567;SDS011;43403;51.948;5.922;2023-08-06T02:26:43;15.23;;;9.80;;
57567;SDS011;43403;51.948;5.922;2023-08-06T02:29:09;12.23;;;9.15;;
57567;SDS011;43403;51.948;5.922;2023-08-06T02:31:36;12.60;;;9.40;;
57567;SDS011;43403;51.948;5.922;2023-08-06T02:34:02;11.90;;;9.32;;
57567;SDS011;43403;51.948;5.922;2023-08-06T02:36:29;16.35;;;9.77;;
57567;SDS011;43403;51.948;5.922;2023-08-06T02:38:56;12.45;;;9.38;;
57567;SDS011;43403;51.948;5.922;2023-08-06T02:41:22;11.93;;;9.07;;
57567;SDS011;43403;51.948;5.922;2023-08-06T02:43:49;12.52;;;9.38;;
57567;SDS011;43403;51.948;5.922;2023-08-06T02:46:15;11.55;;;9.27;;
57567;SDS011;43403;51.948;5.922;2023-08-06T02:48:42;12.57;;;9.45;;
57567;SDS011;43403;51.948;5.922;2023-08-06T02:51:09;12.43;;;9.27;;
57567;SDS011;43403;51.948;5.922;2023-08-06T02:53:35;10.93;;;9.43;;
57567;SDS011;43403;51.948;5.922;2023-08-06T02:56:02;10.15;;;8.73;;
57567;SDS011;43403;51.948;5.922;2023-08-06T02:58:29;13.40;;;8.82;;
57567;SDS011;43403;51.948;5.922;2023-08-06T03:01:02;9.35;;;8.40;;
57567;SDS011;43403;51.948;5.922;2023-08-06T03:03:31;12.38;;;9.60;;
57567;SDS011;43403;51.948;5.922;2023-08-06T03:05:58;11.90;;;8.97;;
57567;SDS011;43403;51.948;5.922;2023-08-06T03:08:25;12.48;;;9.07;;
57567;SDS011;43403;51.948;5.922;2023-08-06T03:10:52;10.73;;;8.93;;
57567;SDS011;43403;51.948;5.922;2023-08-06T03:13:18;10.48;;;8.77;;
57567;SDS011;43403;51.948;5.922;2023-08-06T03:15:55;11.60;;;8.82;;
57567;SDS011;43403;51.948;5.922;2023-08-06T03:18:22;12.20;;;8.82;;
57567;SDS011;43403;51.948;5.922;2023-08-06T03:20:49;9.95;;;8.13;;
57567;SDS011;43403;51.948;5.922;2023-08-06T03:23:16;12.15;;;9.45;;
57567;SDS011;43403;51.948;5.922;2023-08-06T03:25:42;11.25;;;8.32;;
57567;SDS011;43403;51.948;5.922;2023-08-06T03:28:09;10.82;;;8.60;;
57567;SDS011;43403;51.948;5.922;2023-08-06T03:30:35;11.88;;;8.77;;
57567;SDS011;43403;51.948;5.922;2023-08-06T03:33:02;12.23;;;9.38;;
57567;SDS011;43403;51.948;5.922;2023-08-06T03:35:29;12.02;;;9.13;;
57567;SDS011;43403;51.948;5.922;2023-08-06T03:37:56;10.02;;;8.02;;
57567;SDS011;43403;51.948;5.922;2023-08-06T03:40:23;11.35;;;10.00;;
57567;SDS011;43403;51.948;5.922;2023-08-06T03:42:49;13.32;;;10.15;;
57567;SDS011;43403;51.948;5.922;2023-08-06T03:45:16;12.30;;;9.13;;
57567;SDS011;43403;51.948;5.922;2023-08-06T03:47:42;11.35;;;9.35;;
57567;SDS011;43403;51.948;5.922;2023-08-06T03:50:09;12.85;;;9.98;;
57567;SDS011;43403;51.948;5.922;2023-08-06T03:52:36;11.10;;;9.32;;
57567;SDS011;43403;51.948;5.922;2023-08-06T03:55:02;12.52;;;10.00;;
57567;SDS011;43403;51.948;5.922;2023-08-06T03:57:29;12.18;;;9.90;;
57567;SDS011;43403;51.948;5.922;2023-08-06T03:59:56;16.13;;;10.45;;
57567;SDS011;43403;51.948;5.922;2023-08-06T04:02:22;12.02;;;9.98;;
57567;SDS011;43403;51.948;5.922;2023-08-06T04:04:49;11.90;;;9.65;;
57567;SDS011;43403;51.948;5.922;2023-08-06T04:07:15;11.15;;;9.23;;
57567;SDS011;43403;51.948;5.922;2023-08-06T04:09:55;17.92;;;10.30;;
57567;SDS011;43403;51.948;5.922;2023-08-06T04:12:24;12.55;;;9.88;;
57567;SDS011;43403;51.948;5.922;2023-08-06T04:14:51;13.95;;;10.00;;
57567;SDS011;43403;51.948;5.922;2023-08-06T04:17:18;14.20;;;9.80;;
57567;SDS011;43403;51.948;5.922;2023-08-06T04:19:50;14.27;;;9.65;;
57567;SDS011;43403;51.948;5.922;2023-08-06T04:22:18;13.25;;;9.98;;
57567;SDS011;43403;51.948;5.922;2023-08-06T04:24:45;14.10;;;9.77;;
57567;SDS011;43403;51.948;5.922;2023-08-06T04:27:12;12.23;;;9.95;;
57567;SDS011;43403;51.948;5.922;2023-08-06T04:29:40;13.35;;;10.35;;
57567;SDS011;43403;51.948;5.922;2023-08-06T04:32:07;15.00;;;10.70;;
57567;SDS011;43403;51.948;5.922;2023-08-06T04:34:36;15.20;;;11.52;;
57567;SDS011;43403;51.948;5.922;2023-08-06T04:37:03;11.93;;;9.90;;
57567;SDS011;43403;51.948;5.922;2023-08-06T04:39:30;12.18;;;9.70;;
57567;SDS011;43403;51.948;5.922;2023-08-06T04:41:56;11.82;;;9.52;;
57567;SDS011;43403;51.948;5.922;2023-08-06T04:44:26;11.05;;;9.38;;
57567;SDS011;43403;51.948;5.922;2023-08-06T04:46:52;11.45;;;9.18;;
57567;SDS011;43403;51.948;5.922;2023-08-06T04:49:22;13.55;;;9.80;;
57567;SDS011;43403;51.948;5.922;2023-08-06T04:51:49;11.38;;;9.23;;
57567;SDS011;43403;51.948;5.922;2023-08-06T04:54:15;13.73;;;9.77;;
57567;SDS011;43403;51.948;5.922;2023-08-06T04:56:42;11.80;;;8.68;;
57567;SDS011;43403;51.948;5.922;2023-08-06T04:59:08;12.13;;;9.60;;
57567;SDS011;43403;51.948;5.922;2023-08-06T05:01:35;11.30;;;9.25;;
57567;SDS011;43403;51.948;5.922;2023-08-06T05:04:02;14.02;;;9.45;;
57567;SDS011;43403;51.948;5.922;2023-08-06T05:06:28;11.95;;;9.68;;
57567;SDS011;43403;51.948;5.922;2023-08-06T05:08:55;14.02;;;9.45;;
57567;SDS011;43403;51.948;5.922;2023-08-06T05:11:22;12.15;;;9.48;;
57567;SDS011;43403;51.948;5.922;2023-08-06T05:13:48;16.23;;;10.07;;
57567;SDS011;43403;51.948;5.922;2023-08-06T05:16:15;13.30;;;9.77;;
57567;SDS011;43403;51.948;5.922;2023-08-06T05:18:41;14.15;;;10.80;;
57567;SDS011;43403;51.948;5.922;2023-08-06T05:21:08;14.48;;;10.82;;
57567;SDS011;43403;51.948;5.922;2023-08-06T05:23:34;14.55;;;11.52;;
57567;SDS011;43403;51.948;5.922;2023-08-06T05:26:01;14.65;;;9.50;;
57567;SDS011;43403;51.948;5.922;2023-08-06T05:28:28;12.55;;;10.05;;
57567;SDS011;43403;51.948;5.922;2023-08-06T05:30:54;13.13;;;10.15;;
57567;SDS011;43403;51.948;5.922;2023-08-06T05:33:21;11.07;;;9.57;;
57567;SDS011;43403;51.948;5.922;2023-08-06T05:35:48;12.68;;;9.00;;
57567;SDS011;43403;51.948;5.922;2023-08-06T05:38:16;13.60;;;9.65;;
57567;SDS011;43403;51.948;5.922;2023-08-06T05:40:43;11.85;;;8.80;;
57567;SDS011;43403;51.948;5.922;2023-08-06T05:43:10;11.65;;;9.75;;
57567;SDS011;43403;51.948;5.922;2023-08-06T05:45:36;13.90;;;9.98;;
57567;SDS011;43403;51.948;5.922;2023-08-06T05:48:03;13.30;;;11.00;;
57567;SDS011;43403;51.948;5.922;2023-08-06T05:50:30;14.75;;;11.98;;
57567;SDS011;43403;51.948;5.922;2023-08-06T05:52:56;15.48;;;11.27;;
57567;SDS011;43403;51.948;5.922;2023-08-06T05:55:27;15.57;;;11.63;;
57567;SDS011;43403;51.948;5.922;2023-08-06T05:57:53;15.55;;;12.82;;
57567;SDS011;43403;51.948;5.922;2023-08-06T06:00:21;14.77;;;12.48;;
57567;SDS011;43403;51.948;5.922;2023-08-06T06:02:47;14.40;;;12.55;;
57567;SDS011;43403;51.948;5.922;2023-08-06T06:05:14;15.35;;;12.52;;
57567;SDS011;43403;51.948;5.922;2023-08-06T06:07:41;16.20;;;13.85;;
57567;SDS011;43403;51.948;5.922;2023-08-06T06:10:08;16.38;;;13.30;;
57567;SDS011;43403;51.948;5.922;2023-08-06T06:12:35;15.13;;;13.35;;
57567;SDS011;43403;51.948;5.922;2023-08-06T06:15:01;17.63;;;12.98;;
57567;SDS011;43403;51.948;5.922;2023-08-06T06:17:28;20.17;;;13.88;;
57567;SDS011;43403;51.948;5.922;2023-08-06T06:19:55;15.07;;;12.73;;
57567;SDS011;43403;51.948;5.922;2023-08-06T06:22:21;15.85;;;12.95;;
57567;SDS011;43403;51.948;5.922;2023-08-06T06:24:48;15.57;;;12.77;;
57567;SDS011;43403;51.948;5.922;2023-08-06T06:27:14;13.85;;;11.18;;
57567;SDS011;43403;51.948;5.922;2023-08-06T06:29:41;14.07;;;11.70;;
57567;SDS011;43403;51.948;5.922;2023-08-06T06:32:07;12.80;;;10.20;;
57567;SDS011;43403;51.948;5.922;2023-08-06T06:34:34;11.98;;;10.43;;
57567;SDS011;43403;51.948;5.922;2023-08-06T06:37:01;11.82;;;9.10;;
57567;SDS011;43403;51.948;5.922;2023-08-06T06:39:27;10.40;;;8.23;;
57567;SDS011;43403;51.948;5.922;2023-08-06T06:41:54;8.98;;;7.20;;
57567;SDS011;43403;51.948;5.922;2023-08-06T06:44:21;9.10;;;6.53;;
57567;SDS011;43403;51.948;5.922;2023-08-06T06:46:47;10.38;;;7.75;;
57567;SDS011;43403;51.948;5.922;2023-08-06T06:49:14;8.82;;;7.60;;
57567;SDS011;43403;51.948;5.922;2023-08-06T06:51:41;10.60;;;8.73;;
57567;SDS011;43403;51.948;5.922;2023-08-06T06:54:07;11.90;;;8.23;;
57567;SDS011;43403;51.948;5.922;2023-08-06T06:56:34;10.23;;;7.57;;
57567;SDS011;43403;51.948;5.922;2023-08-06T06:59:00;8.75;;;7.10;;
57567;SDS011;43403;51.948;5.922;2023-08-06T07:01:27;9.15;;;7.15;;
57567;SDS011;43403;51.948;5.922;2023-08-06T07:03:54;9.30;;;7.30;;
57567;SDS011;43403;51.948;5.922;2023-08-06T07:06:20;10.73;;;7.88;;
57567;SDS011;43403;51.948;5.922;2023-08-06T07:08:47;11.20;;;9.20;;
57567;SDS011;43403;51.948;5.922;2023-08-06T07:11:13;12.43;;;9.48;;
57567;SDS011;43403;51.948;5.922;2023-08-06T07:13:40;11.77;;;9.32;;
57567;SDS011;43403;51.948;5.922;2023-08-06T07:16:06;13.32;;;10.25;;
57567;SDS011;43403;51.948;5.922;2023-08-06T07:18:36;16.05;;;11.98;;
57567;SDS011;43403;51.948;5.922;2023-08-06T07:21:03;12.30;;;10.77;;
57567;SDS011;43403;51.948;5.922;2023-08-06T07:23:29;13.48;;;11.13;;
57567;SDS011;43403;51.948;5.922;2023-08-06T07:25:56;15.55;;;11.55;;
57567;SDS011;43403;51.948;5.922;2023-08-06T07:28:22;16.15;;;11.38;;
57567;SDS011;43403;51.948;5.922;2023-08-06T07:30:49;14.75;;;11.07;;
57567;SDS011;43403;51.948;5.922;2023-08-06T07:33:15;17.55;;;11.73;;
57567;SDS011;43403;51.948;5.922;2023-08-06T07:35:42;15.23;;;11.57;;
57567;SDS011;43403;51.948;5.922;2023-08-06T07:38:09;15.68;;;12.70;;
57567;SDS011;43403;51.948;5.922;2023-08-06T07:40:36;16.90;;;12.55;;
57567;SDS011;43403;51.948;5.922;2023-08-06T07:43:03;15.77;;;12.68;;
57567;SDS011;43403;51.948;5.922;2023-08-06T07:45:34;19.77;;;13.48;;
57567;SDS011;43403;51.948;5.922;2023-08-06T07:48:01;21.70;;;13.98;;
57567;SDS011;43403;51.948;5.922;2023-08-06T07:50:29;19.50;;;14.05;;
57567;SDS011;43403;51.948;5.922;2023-08-06T07:52:55;18.08;;;14.38;;
57567;SDS011;43403;51.948;5.922;2023-08-06T07:55:22;16.25;;;13.93;;
57567;SDS011;43403;51.948;5.922;2023-08-06T07:57:48;18.05;;;13.90;;
57567;SDS011;43403;51.948;5.922;2023-08-06T08:00:15;15.55;;;12.90;;
57567;SDS011;43403;51.948;5.922;2023-08-06T08:02:42;16.48;;;12.70;;
57567;SDS011;43403;51.948;5.922;2023-08-06T08:05:08;14.82;;;11.93;;
57567;SDS011;43403;51.948;5.922;2023-08-06T08:07:35;18.58;;;11.85;;
57567;SDS011;43403;51.948;5.922;2023-08-06T08:10:01;14.73;;;11.80;;
57567;SDS011;43403;51.948;5.922;2023-08-06T08:12:28;14.18;;;12.32;;
57567;SDS011;43403;51.948;5.922;2023-08-06T08:14:54;14.20;;;11.85;;
57567;SDS011;43403;51.948;5.922;2023-08-06T08:17:21;12.75;;;11.30;;
57567;SDS011;43403;51.948;5.922;2023-08-06T08:19:47;14.63;;;10.65;;
57567;SDS011;43403;51.948;5.922;2023-08-06T08:22:14;13.68;;;10.75;;
57567;SDS011;43403;51.948;5.922;2023-08-06T08:24:40;12.57;;;11.25;;
57567;SDS011;43403;51.948;5.922;2023-08-06T08:27:07;12.15;;;10.75;;
57567;SDS011;43403;51.948;5.922;2023-08-06T08:29:33;12.32;;;9.77;;
57567;SDS011;43403;51.948;5.922;2023-08-06T08:32:00;11.30;;;9.25;;
57567;SDS011;43403;51.948;5.922;2023-08-06T08:34:26;12.15;;;10.23;;
57567;SDS011;43403;51.948;5.922;2023-08-06T08:36:53;11.18;;;9.77;;
57567;SDS011;43403;51.948;5.922;2023-08-06T08:39:20;10.88;;;9.77;;
57567;SDS011;43403;51.948;5.922;2023-08-06T08:41:46;10.82;;;9.60;;
57567;SDS011;43403;51.948;5.922;2023-08-06T08:44:13;11.77;;;9.32;;
57567;SDS011;43403;51.948;5.922;2023-08-06T08:46:42;10.60;;;9.50;;
57567;SDS011;43403;51.948;5.922;2023-08-06T08:49:10;9.07;;;8.18;;
57567;SDS011;43403;51.948;5.922;2023-08-06T08:51:37;12.75;;;8.65;;
57567;SDS011;43403;51.948;5.922;2023-08-06T08:54:04;10.38;;;9.27;;
57567;SDS011;43403;51.948;5.922;2023-08-06T08:56:34;10.52;;;9.35;;
57567;SDS011;43403;51.948;5.922;2023-08-06T08:59:00;9.05;;;8.15;;
57567;SDS011;43403;51.948;5.922;2023-08-06T09:01:27;10.25;;;8.45;;
57567;SDS011;43403;51.948;5.922;2023-08-06T09:03:55;12.43;;;9.68;;
57567;SDS011;43403;51.948;5.922;2023-08-06T09:08:54;10.95;;;8.70;;
57567;SDS011;43403;51.948;5.922;2023-08-06T09:11:27;10.50;;;9.07;;
57567;SDS011;43403;51.948;5.922;2023-08-06T09:13:57;11.48;;;9.63;;
57567;SDS011;43403;51.948;5.922;2023-08-06T09:16:24;11.65;;;8.90;;
57567;SDS011;43403;51.948;5.922;2023-08-06T09:18:51;10.88;;;9.70;;
57567;SDS011;43403;51.948;5.922;2023-08-06T09:21:17;11.18;;;9.27;;
57567;SDS011;43403;51.948;5.922;2023-08-06T09:23:44;11.10;;;8.63;;
57567;SDS011;43403;51.948;5.922;2023-08-06T09:26:11;10.80;;;8.90;;
57567;SDS011;43403;51.948;5.922;2023-08-06T09:28:42;9.88;;;8.65;;
57567;SDS011;43403;51.948;5.922;2023-08-06T09:31:09;11.52;;;8.73;;
57567;SDS011;43403;51.948;5.922;2023-08-06T09:33:37;13.85;;;9.25;;
57567;SDS011;43403;51.948;5.922;2023-08-06T09:36:07;11.38;;;8.38;;
57567;SDS011;43403;51.948;5.922;2023-08-06T09:38:38;9.57;;;8.45;;
57567;SDS011;43403;51.948;5.922;2023-08-06T09:41:06;12.40;;;8.70;;
57567;SDS011;43403;51.948;5.922;2023-08-06T09:43:40;9.97;;;7.63;;
57567;SDS011;43403;51.948;5.922;2023-08-06T09:46:11;9.63;;;7.25;;
57567;SDS011;43403;51.948;5.922;2023-08-06T09:48:46;10.30;;;8.13;;
57567;SDS011;43403;51.948;5.922;2023-08-06T09:51:13;10.65;;;7.88;;
57567;SDS011;43403;51.948;5.922;2023-08-06T09:53:40;8.25;;;6.28;;
57567;SDS011;43403;51.948;5.922;2023-08-06T09:58:35;7.03;;;6.03;;
57567;SDS011;43403;51.948;5.922;2023-08-06T10:01:03;8.70;;;5.47;;
57567;SDS011;43403;51.948;5.922;2023-08-06T10:03:30;7.82;;;5.07;;
57567;SDS011;43403;51.948;5.922;2023-08-06T10:06:00;6.93;;;5.32;;
57567;SDS011;43403;51.948;5.922;2023-08-06T10:08:28;7.43;;;5.75;;
57567;SDS011;43403;51.948;5.922;2023-08-06T10:10:55;6.55;;;5.72;;
57567;SDS011;43403;51.948;5.922;2023-08-06T10:13:23;8.55;;;6.50;;
57567;SDS011;43403;51.948;5.922;2023-08-06T10:15:51;7.37;;;4.93;;
57567;SDS011;43403;51.948;5.922;2023-08-06T10:18:18;5.07;;;4.07;;
57567;SDS011;43403;51.948;5.922;2023-08-06T10:20:48;4.63;;;3.78;;
57567;SDS011;43403;51.948;5.922;2023-08-06T10:23:15;6.32;;;4.00;;
57567;SDS011;43403;51.948;5.922;2023-08-06T10:25:42;7.97;;;7.18;;
57567;SDS011;43403;51.948;5.922;2023-08-06T10:28:09;11.63;;;10.43;;
57567;SDS011;43403;51.948;5.922;2023-08-06T10:30:41;9.23;;;7.05;;
57567;SDS011;43403;51.948;5.922;2023-08-06T10:33:11;7.30;;;2.75;;
57567;SDS011;43403;51.948;5.922;2023-08-06T10:35:41;3.60;;;2.53;;
57567;SDS011;43403;51.948;5.922;2023-08-06T10:38:20;2.53;;;1.40;;
57567;SDS011;43403;51.948;5.922;2023-08-06T10:40:49;4.03;;;1.50;;
57567;SDS011;43403;51.948;5.922;2023-08-06T10:45:53;3.50;;;1.00;;
57567;SDS011;43403;51.948;5.922;2023-08-06T10:48:40;1.05;;;0.80;;
57567;SDS011;43403;51.948;5.922;2023-08-06T10:51:09;1.35;;;1.17;;
57567;SDS011;43403;51.948;5.922;2023-08-06T10:53:37;5.18;;;1.50;;
57567;SDS011;43403;51.948;5.922;2023-08-06T10:58:49;1.80;;;1.10;;
57567;SDS011;43403;51.948;5.922;2023-08-06T11:03:44;4.20;;;1.30;;
57567;SDS011;43403;51.948;5.922;2023-08-06T11:06:16;2.90;;;1.60;;
57567;SDS011;43403;51.948;5.922;2023-08-06T11:08:52;4.43;;;1.98;;
57567;SDS011;43403;51.948;5.922;2023-08-06T11:11:21;4.25;;;1.80;;
57567;SDS011;43403;51.948;5.922;2023-08-06T11:13:49;3.72;;;1.60;;
57567;SDS011;43403;51.948;5.922;2023-08-06T11:16:18;4.57;;;1.73;;
57567;SDS011;43403;51.948;5.922;2023-08-06T11:18:46;3.30;;;1.30;;
57567;SDS011;43403;51.948;5.922;2023-08-06T11:21:13;2.40;;;1.27;;
57567;SDS011;43403;51.948;5.922;2023-08-06T11:23:41;1.88;;;1.20;;
57567;SDS011;43403;51.948;5.922;2023-08-06T11:26:07;2.22;;;1.40;;
57567;SDS011;43403;51.948;5.922;2023-08-06T11:28:34;2.65;;;1.60;;
57567;SDS011;43403;51.948;5.922;2023-08-06T11:31:01;2.83;;;1.50;;
57567;SDS011;43403;51.948;5.922;2023-08-06T11:35:57;2.40;;;1.80;;
57567;SDS011;43403;51.948;5.922;2023-08-06T11:40:57;4.13;;;2.45;;
57567;SDS011;43403;51.948;5.922;2023-08-06T11:43:24;4.00;;;1.98;;
57567;SDS011;43403;51.948;5.922;2023-08-06T11:45:50;2.88;;;2.10;;
57567;SDS011;43403;51.948;5.922;2023-08-06T11:48:20;3.60;;;2.30;;
57567;SDS011;43403;51.948;5.922;2023-08-06T11:50:47;3.95;;;2.22;;
57567;SDS011;43403;51.948;5.922;2023-08-06T11:53:14;3.40;;;2.40;;
57567;SDS011;43403;51.948;5.922;2023-08-06T11:55:41;5.85;;;2.55;;
57567;SDS011;43403;51.948;5.922;2023-08-06T11:58:09;7.70;;;3.33;;
57567;SDS011;43403;51.948;5.922;2023-08-06T12:00:38;7.28;;;3.55;;
57567;SDS011;43403;51.948;5.922;2023-08-06T12:03:05;12.60;;;3.80;;
57567;SDS011;43403;51.948;5.922;2023-08-06T12:05:32;8.50;;;3.28;;
57567;SDS011;43403;51.948;5.922;2023-08-06T12:08:00;4.03;;;2.65;;
57567;SDS011;43403;51.948;5.922;2023-08-06T12:10:29;6.03;;;2.95;;
57567;SDS011;43403;51.948;5.922;2023-08-06T12:12:57;5.45;;;2.90;;
57567;SDS011;43403;51.948;5.922;2023-08-06T12:15:23;6.40;;;2.55;;
57567;SDS011;43403;51.948;5.922;2023-08-06T12:17:50;4.43;;;2.63;;
57567;SDS011;43403;51.948;5.922;2023-08-06T12:20:17;3.85;;;2.50;;
57567;SDS011;43403;51.948;5.922;2023-08-06T12:22:44;6.10;;;2.60;;
57567;SDS011;43403;51.948;5.922;2023-08-06T12:25:12;2.90;;;2.05;;
57567;SDS011;43403;51.948;5.922;2023-08-06T12:27:42;7.28;;;2.80;;
57567;SDS011;43403;51.948;5.922;2023-08-06T12:30:10;5.85;;;2.55;;
57567;SDS011;43403;51.948;5.922;2023-08-06T12:32:38;7.00;;;2.85;;
57567;SDS011;43403;51.948;5.922;2023-08-06T12:35:05;8.65;;;2.97;;
57567;SDS011;43403;51.948;5.922;2023-08-06T12:37:33;6.82;;;2.75;;
57567;SDS011;43403;51.948;5.922;2023-08-06T12:40:01;5.63;;;3.28;;
57567;SDS011;43403;51.948;5.922;2023-08-06T12:42:47;7.07;;;2.90;;
57567;SDS011;43403;51.948;5.922;2023-08-06T12:45:15;8.75;;;3.30;;
57567;SDS011;43403;51.948;5.922;2023-08-06T12:47:41;5.45;;;3.33;;
57567;SDS011;43403;51.948;5.922;2023-08-06T12:50:09;6.25;;;3.50;;
57567;SDS011;43403;51.948;5.922;2023-08-06T12:52:35;6.35;;;3.38;;
57567;SDS011;43403;51.948;5.922;2023-08-06T12:55:02;6.88;;;3.40;;
57567;SDS011;43403;51.948;5.922;2023-08-06T12:57:28;5.32;;;2.80;;
57567;SDS011;43403;51.948;5.922;2023-08-06T13:00:12;5.55;;;2.97;;
57567;SDS011;43403;51.948;5.922;2023-08-06T13:02:39;5.88;;;3.28;;
57567;SDS011;43403;51.948;5.922;2023-08-06T13:05:06;7.32;;;3.67;;
57567;SDS011;43403;51.948;5.922;2023-08-06T13:07:33;6.50;;;3.10;;
57567;SDS011;43403;51.948;5.922;2023-08-06T13:09:59;5.60;;;2.85;;
57567;SDS011;43403;51.948;5.922;2023-08-06T13:12:26;10.07;;;3.28;;
57567;SDS011;43403;51.948;5.922;2023-08-06T13:14:53;8.70;;;2.88;;
57567;SDS011;43403;51.948;5.922;2023-08-06T13:17:19;7.30;;;3.33;;
57567;SDS011;43403;51.948;5.922;2023-08-06T13:19:46;9.88;;;4.60;;
57567;SDS011;43403;51.948;5.922;2023-08-06T13:22:12;9.52;;;4.32;;
57567;SDS011;43403;51.948;5.922;2023-08-06T13:24:39;11.65;;;3.90;;
57567;SDS011;43403;51.948;5.922;2023-08-06T13:27:05;6.88;;;3.80;;
57567;SDS011;43403;51.948;5.922;2023-08-06T13:29:32;12.07;;;3.55;;
57567;SDS011;43403;51.948;5.922;2023-08-06T13:31:59;8.07;;;3.70;;
57567;SDS011;43403;51.948;5.922;2023-08-06T13:34:26;6.15;;;3.10;;
57567;SDS011;43403;51.948;5.922;2023-08-06T13:36:52;9.15;;;3.45;;
57567;SDS011;43403;51.948;5.922;2023-08-06T13:39:19;4.20;;;3.03;;
57567;SDS011;43403;51.948;5.922;2023-08-06T13:41:46;6.25;;;3.17;;
57567;SDS011;43403;51.948;5.922;2023-08-06T13:44:13;8.43;;;3.42;;
57567;SDS011;43403;51.948;5.922;2023-08-06T13:46:41;5.70;;;3.13;;
57567;SDS011;43403;51.948;5.922;2023-08-06T13:49:08;8.98;;;3.25;;
57567;SDS011;43403;51.948;5.922;2023-08-06T13:51:34;7.60;;;3.15;;
57567;SDS011;43403;51.948;5.922;2023-08-06T13:54:02;7.72;;;3.17;;
57567;SDS011;43403;51.948;5.922;2023-08-06T13:56:29;7.25;;;2.95;;
57567;SDS011;43403;51.948;5.922;2023-08-06T13:58:58;9.32;;;3.10;;
57567;SDS011;43403;51.948;5.922;2023-08-06T14:01:25;9.93;;;2.90;;
57567;SDS011;43403;51.948;5.922;2023-08-06T14:04:12;4.70;;;2.75;;
57567;SDS011;43403;51.948;5.922;2023-08-06T14:06:39;5.15;;;2.78;;
57567;SDS011;43403;51.948;5.922;2023-08-06T14:09:06;6.60;;;2.75;;
57567;SDS011;43403;51.948;5.922;2023-08-06T14:11:33;4.82;;;2.90;;
57567;SDS011;43403;51.948;5.922;2023-08-06T14:14:00;5.22;;;2.97;;
57567;SDS011;43403;51.948;5.922;2023-08-06T14:16:29;5.47;;;2.63;;
57567;SDS011;43403;51.948;5.922;2023-08-06T14:18:56;5.60;;;2.92;;
57567;SDS011;43403;51.948;5.922;2023-08-06T14:21:22;8.15;;;3.03;;
57567;SDS011;43403;51.948;5.922;2023-08-06T14:23:49;7.10;;;3.28;;
57567;SDS011;43403;51.948;5.922;2023-08-06T14:26:15;5.60;;;2.85;;
57567;SDS011;43403;51.948;5.922;2023-08-06T14:28:43;7.53;;;3.15;;
57567;SDS011;43403;51.948;5.922;2023-08-06T14:31:10;5.97;;;3.00;;
57567;SDS011;43403;51.948;5.922;2023-08-06T14:33:37;4.82;;;2.90;;
57567;SDS011;43403;51.948;5.922;2023-08-06T14:36:04;4.95;;;2.72;;
57567;SDS011;43403;51.948;5.922;2023-08-06T14:38:30;5.18;;;2.58;;
57567;SDS011;43403;51.948;5.922;2023-08-06T14:40:58;8.88;;;3.47;;
57567;SDS011;43403;51.948;5.922;2023-08-06T14:43:25;4.93;;;2.78;;
57567;SDS011;43403;51.948;5.922;2023-08-06T14:45:51;5.13;;;2.85;;
57567;SDS011;43403;51.948;5.922;2023-08-06T14:48:18;7.00;;;3.10;;
57567;SDS011;43403;51.948;5.922;2023-08-06T14:50:45;6.72;;;2.63;;
57567;SDS011;43403;51.948;5.922;2023-08-06T14:53:11;6.78;;;3.10;;
57567;SDS011;43403;51.948;5.922;2023-08-06T14:55:39;5.40;;;2.70;;
57567;SDS011;43403;51.948;5.922;2023-08-06T14:58:05;5.03;;;2.63;;
57567;SDS011;43403;51.948;5.922;2023-08-06T15:00:32;5.18;;;3.10;;